KCQB

Chandler Regional Airport

Chandler, Oklahoma, USA
METAR KCQB 100655Z AUTO 00000KT 10SM CLR M02/M06 A3034 RMK AO2 T10151055
Observed Flight Rules
Dec-10 @ 06:55 UTC (7 minutes ago) Visual Flight Rules
Visibility Clouds
10 miles
  • Clear skies
Temperatures Readings
Current -2°C / 28°F
Dewpoint -6°C / 21°F
Humidity 74%
Altimeter 30.34" Hg
Pressure 1027 hPa
Elevation 300
METAR KCQB 100655Z AUTO 00000KT 10SM CLR M02/M06 A3034 RMK AO2 T10151055
Observed Flight Rules
Dec-10 @ 06:55 UTC
(7 minutes ago)
VFR
Clouds
  • Clear skies
Temperature Dewpoint
-2°C / 28°F -6°C / 21°F
Humidity Altimeter Pressure
74% 30.34" Hg 1027 hPa